sensor_id;sensor_type;location;lat;lon;timestamp;temperature;humidity
20833;DHT22;56075;51.264;7.150;2023-07-16T00:00:22;19.80;99.90
20833;DHT22;56075;51.264;7.150;2023-07-16T00:02:58;19.80;99.90
20833;DHT22;56075;51.264;7.150;2023-07-16T00:05:30;20.90;99.90
20833;DHT22;56075;51.264;7.150;2023-07-16T00:08:01;19.80;99.90
20833;DHT22;56075;51.264;7.150;2023-07-16T00:10:36;19.80;99.90
20833;DHT22;56075;51.264;7.150;2023-07-16T00:13:07;20.40;99.90
20833;DHT22;56075;51.264;7.150;2023-07-16T00:15:39;19.80;99.90
20833;DHT22;56075;51.264;7.150;2023-07-16T00:18:10;19.90;99.90
20833;DHT22;56075;51.264;7.150;2023-07-16T00:20:41;19.70;99.90
20833;DHT22;56075;51.264;7.150;2023-07-16T00:23:12;19.90;99.90
20833;DHT22;56075;51.264;7.150;2023-07-16T00:25:43;20.80;99.90
20833;DHT22;56075;51.264;7.150;2023-07-16T00:28:14;19.70;99.90
20833;DHT22;56075;51.264;7.150;2023-07-16T00:30:46;19.70;99.90
20833;DHT22;56075;51.264;7.150;2023-07-16T00:33:17;19.90;99.90
20833;DHT22;56075;51.264;7.150;2023-07-16T00:35:49;20.00;99.90
20833;DHT22;56075;51.264;7.150;2023-07-16T00:38:20;19.90;99.90
20833;DHT22;56075;51.264;7.150;2023-07-16T00:40:51;19.80;99.90
20833;DHT22;56075;51.264;7.150;2023-07-16T00:43:23;19.90;99.90
20833;DHT22;56075;51.264;7.150;2023-07-16T00:45:54;19.80;99.90
20833;DHT22;56075;51.264;7.150;2023-07-16T00:48:25;20.40;99.90
20833;DHT22;56075;51.264;7.150;2023-07-16T00:50:57;19.90;99.90
20833;DHT22;56075;51.264;7.150;2023-07-16T00:53:30;19.60;99.90
20833;DHT22;56075;51.264;7.150;2023-07-16T00:56:01;19.80;99.90
20833;DHT22;56075;51.264;7.150;2023-07-16T00:58:32;19.60;99.90
20833;DHT22;56075;51.264;7.150;2023-07-16T01:01:03;20.00;99.90
20833;DHT22;56075;51.264;7.150;2023-07-16T01:03:35;20.60;99.90
20833;DHT22;56075;51.264;7.150;2023-07-16T01:06:22;19.70;99.90
20833;DHT22;56075;51.264;7.150;2023-07-16T01:09:09;19.30;99.90
20833;DHT22;56075;51.264;7.150;2023-07-16T01:11:42;19.30;99.90
20833;DHT22;56075;51.264;7.150;2023-07-16T01:14:16;19.30;99.90
20833;DHT22;56075;51.264;7.150;2023-07-16T01:16:47;19.20;99.90
20833;DHT22;56075;51.264;7.150;2023-07-16T01:19:18;19.10;99.90
20833;DHT22;56075;51.264;7.150;2023-07-16T01:27:58;19.00;99.90
20833;DHT22;56075;51.264;7.150;2023-07-16T01:30:30;20.00;99.90
20833;DHT22;56075;51.264;7.150;2023-07-16T01:33:03;19.00;99.90
20833;DHT22;56075;51.264;7.150;2023-07-16T01:35:35;18.90;99.90
20833;DHT22;56075;51.264;7.150;2023-07-16T01:38:09;20.20;99.90
20833;DHT22;56075;51.264;7.150;2023-07-16T01:40:40;19.00;99.90
20833;DHT22;56075;51.264;7.150;2023-07-16T01:43:12;19.00;99.90
20833;DHT22;56075;51.264;7.150;2023-07-16T01:45:43;19.20;99.90
20833;DHT22;56075;51.264;7.150;2023-07-16T01:48:30;19.70;99.90
20833;DHT22;56075;51.264;7.150;2023-07-16T01:51:03;19.10;99.90
20833;DHT22;56075;51.264;7.150;2023-07-16T01:53:34;18.90;99.90
20833;DHT22;56075;51.264;7.150;2023-07-16T01:56:08;19.30;99.90
20833;DHT22;56075;51.264;7.150;2023-07-16T01:58:39;19.20;99.90
20833;DHT22;56075;51.264;7.150;2023-07-16T02:01:10;19.60;99.90
20833;DHT22;56075;51.264;7.150;2023-07-16T02:03:41;19.40;99.90
20833;DHT22;56075;51.264;7.150;2023-07-16T02:06:13;20.10;99.90
20833;DHT22;56075;51.264;7.150;2023-07-16T02:08:44;19.20;99.90
20833;DHT22;56075;51.264;7.150;2023-07-16T02:11:15;19.30;99.90
20833;DHT22;56075;51.264;7.150;2023-07-16T02:13:47;19.80;99.90
20833;DHT22;56075;51.264;7.150;2023-07-16T02:16:18;19.30;99.90
20833;DHT22;56075;51.264;7.150;2023-07-16T02:18:49;19.40;99.90
20833;DHT22;56075;51.264;7.150;2023-07-16T02:21:20;19.30;99.90
20833;DHT22;56075;51.264;7.150;2023-07-16T02:23:53;19.30;99.90
20833;DHT22;56075;51.264;7.150;2023-07-16T02:26:24;19.30;99.90
20833;DHT22;56075;51.264;7.150;2023-07-16T02:28:56;19.30;99.90
20833;DHT22;56075;51.264;7.150;2023-07-16T02:31:27;19.30;99.90
20833;DHT22;56075;51.264;7.150;2023-07-16T02:33:58;20.10;99.90
20833;DHT22;56075;51.264;7.150;2023-07-16T02:36:29;19.40;99.90
20833;DHT22;56075;51.264;7.150;2023-07-16T02:39:01;19.40;99.90
20833;DHT22;56075;51.264;7.150;2023-07-16T02:41:32;19.40;99.90
20833;DHT22;56075;51.264;7.150;2023-07-16T02:44:06;19.80;99.90
20833;DHT22;56075;51.264;7.150;2023-07-16T02:46:38;19.30;99.90
20833;DHT22;56075;51.264;7.150;2023-07-16T02:49:09;19.40;99.90
20833;DHT22;56075;51.264;7.150;2023-07-16T02:51:41;19.20;99.90
20833;DHT22;56075;51.264;7.150;2023-07-16T02:54:12;19.20;99.90
20833;DHT22;56075;51.264;7.150;2023-07-16T02:56:43;19.10;99.90
20833;DHT22;56075;51.264;7.150;2023-07-16T02:59:14;19.10;99.90
20833;DHT22;56075;51.264;7.150;2023-07-16T03:01:45;19.00;99.90
20833;DHT22;56075;51.264;7.150;2023-07-16T03:04:16;19.00;99.90
20833;DHT22;56075;51.264;7.150;2023-07-16T03:06:48;18.80;99.90
20833;DHT22;56075;51.264;7.150;2023-07-16T03:09:19;18.80;99.90
20833;DHT22;56075;51.264;7.150;2023-07-16T03:11:51;18.70;99.90
20833;DHT22;56075;51.264;7.150;2023-07-16T03:14:23;19.80;99.90
20833;DHT22;56075;51.264;7.150;2023-07-16T03:16:54;18.70;99.90
20833;DHT22;56075;51.264;7.150;2023-07-16T03:19:26;18.70;99.90
20833;DHT22;56075;51.264;7.150;2023-07-16T03:21:57;18.50;99.90
20833;DHT22;56075;51.264;7.150;2023-07-16T03:24:28;19.50;99.90
20833;DHT22;56075;51.264;7.150;2023-07-16T03:27:00;18.40;99.90
20833;DHT22;56075;51.264;7.150;2023-07-16T03:29:33;18.50;99.90
20833;DHT22;56075;51.264;7.150;2023-07-16T03:32:04;18.50;99.90
20833;DHT22;56075;51.264;7.150;2023-07-16T03:34:36;18.30;99.90
20833;DHT22;56075;51.264;7.150;2023-07-16T03:37:07;18.30;99.90
20833;DHT22;56075;51.264;7.150;2023-07-16T03:39:38;18.20;99.90
20833;DHT22;56075;51.264;7.150;2023-07-16T03:42:09;18.40;99.90
20833;DHT22;56075;51.264;7.150;2023-07-16T03:44:40;18.00;99.90
20833;DHT22;56075;51.264;7.150;2023-07-16T03:47:12;18.20;99.90
20833;DHT22;56075;51.264;7.150;2023-07-16T03:49:43;18.20;99.90
20833;DHT22;56075;51.264;7.150;2023-07-16T03:52:14;18.10;99.90
20833;DHT22;56075;51.264;7.150;2023-07-16T03:54:45;18.10;99.90
20833;DHT22;56075;51.264;7.150;2023-07-16T03:57:16;18.60;99.90
20833;DHT22;56075;51.264;7.150;2023-07-16T03:59:47;18.00;99.90
20833;DHT22;56075;51.264;7.150;2023-07-16T04:02:19;18.00;99.90
20833;DHT22;56075;51.264;7.150;2023-07-16T04:04:51;18.00;99.90
20833;DHT22;56075;51.264;7.150;2023-07-16T04:07:22;18.00;99.90
20833;DHT22;56075;51.264;7.150;2023-07-16T04:09:53;18.00;99.90
20833;DHT22;56075;51.264;7.150;2023-07-16T04:12:24;18.20;99.90
20833;DHT22;56075;51.264;7.150;2023-07-16T04:14:57;18.80;99.90
20833;DHT22;56075;51.264;7.150;2023-07-16T04:17:29;18.50;99.90
20833;DHT22;56075;51.264;7.150;2023-07-16T04:20:00;18.60;99.90
20833;DHT22;56075;51.264;7.150;2023-07-16T04:22:31;17.90;99.90
20833;DHT22;56075;51.264;7.150;2023-07-16T04:25:03;17.80;99.90
20833;DHT22;56075;51.264;7.150;2023-07-16T04:27:34;17.80;99.90
20833;DHT22;56075;51.264;7.150;2023-07-16T04:30:07;17.60;99.90
20833;DHT22;56075;51.264;7.150;2023-07-16T04:32:38;17.70;99.90
20833;DHT22;56075;51.264;7.150;2023-07-16T04:35:09;18.80;99.90
20833;DHT22;56075;51.264;7.150;2023-07-16T04:37:40;17.90;99.90
20833;DHT22;56075;51.264;7.150;2023-07-16T04:40:11;17.80;99.90
20833;DHT22;56075;51.264;7.150;2023-07-16T04:42:43;17.80;99.90
20833;DHT22;56075;51.264;7.150;2023-07-16T04:45:14;17.60;99.90
20833;DHT22;56075;51.264;7.150;2023-07-16T04:47:45;18.00;99.90
20833;DHT22;56075;51.264;7.150;2023-07-16T04:50:16;17.90;99.90
20833;DHT22;56075;51.264;7.150;2023-07-16T04:52:47;17.80;99.90
20833;DHT22;56075;51.264;7.150;2023-07-16T04:55:18;17.90;99.90
20833;DHT22;56075;51.264;7.150;2023-07-16T04:57:49;18.90;99.90
20833;DHT22;56075;51.264;7.150;2023-07-16T05:00:24;17.90;99.90
20833;DHT22;56075;51.264;7.150;2023-07-16T05:02:55;17.80;99.90
20833;DHT22;56075;51.264;7.150;2023-07-16T05:05:26;17.80;99.90
20833;DHT22;56075;51.264;7.150;2023-07-16T05:07:58;18.00;99.90
20833;DHT22;56075;51.264;7.150;2023-07-16T05:10:29;17.90;99.90
20833;DHT22;56075;51.264;7.150;2023-07-16T05:13:00;17.70;99.90
20833;DHT22;56075;51.264;7.150;2023-07-16T05:15:34;17.90;99.90
20833;DHT22;56075;51.264;7.150;2023-07-16T05:18:05;17.90;99.90
20833;DHT22;56075;51.264;7.150;2023-07-16T05:20:37;17.90;99.90
20833;DHT22;56075;51.264;7.150;2023-07-16T05:23:09;18.40;99.90
20833;DHT22;56075;51.264;7.150;2023-07-16T05:25:47;17.90;99.90
20833;DHT22;56075;51.264;7.150;2023-07-16T05:28:19;17.90;99.90
20833;DHT22;56075;51.264;7.150;2023-07-16T05:31:00;17.90;99.90
20833;DHT22;56075;51.264;7.150;2023-07-16T05:33:31;18.00;99.90
20833;DHT22;56075;51.264;7.150;2023-07-16T05:36:03;18.10;99.90
20833;DHT22;56075;51.264;7.150;2023-07-16T05:38:34;18.10;99.90
20833;DHT22;56075;51.264;7.150;2023-07-16T05:41:05;18.20;99.90
20833;DHT22;56075;51.264;7.150;2023-07-16T05:43:36;19.20;99.90
20833;DHT22;56075;51.264;7.150;2023-07-16T05:46:08;18.10;99.90
20833;DHT22;56075;51.264;7.150;2023-07-16T05:48:39;18.20;99.90
20833;DHT22;56075;51.264;7.150;2023-07-16T05:51:10;18.20;99.90
20833;DHT22;56075;51.264;7.150;2023-07-16T05:53:41;18.10;99.90
20833;DHT22;56075;51.264;7.150;2023-07-16T05:56:12;18.20;99.90
20833;DHT22;56075;51.264;7.150;2023-07-16T05:58:43;18.10;99.90
20833;DHT22;56075;51.264;7.150;2023-07-16T06:01:14;18.10;99.90
20833;DHT22;56075;51.264;7.150;2023-07-16T06:03:45;18.20;99.90
20833;DHT22;56075;51.264;7.150;2023-07-16T06:06:17;19.10;99.90
20833;DHT22;56075;51.264;7.150;2023-07-16T06:08:48;18.10;99.90
20833;DHT22;56075;51.264;7.150;2023-07-16T06:11:19;18.30;99.90
20833;DHT22;56075;51.264;7.150;2023-07-16T06:13:53;18.10;99.90
20833;DHT22;56075;51.264;7.150;2023-07-16T06:16:25;18.20;99.90
20833;DHT22;56075;51.264;7.150;2023-07-16T06:18:56;19.20;99.90
20833;DHT22;56075;51.264;7.150;2023-07-16T06:21:27;18.30;99.90
20833;DHT22;56075;51.264;7.150;2023-07-16T06:23:58;18.40;99.90
20833;DHT22;56075;51.264;7.150;2023-07-16T06:26:29;18.40;99.90
20833;DHT22;56075;51.264;7.150;2023-07-16T06:29:00;18.20;99.90
20833;DHT22;56075;51.264;7.150;2023-07-16T06:31:31;18.50;99.90
20833;DHT22;56075;51.264;7.150;2023-07-16T06:34:03;18.40;99.90
20833;DHT22;56075;51.264;7.150;2023-07-16T06:36:34;18.40;99.90
20833;DHT22;56075;51.264;7.150;2023-07-16T06:39:06;18.50;99.90
20833;DHT22;56075;51.264;7.150;2023-07-16T06:41:37;18.60;99.90
20833;DHT22;56075;51.264;7.150;2023-07-16T06:44:12;18.60;99.90
20833;DHT22;56075;51.264;7.150;2023-07-16T06:46:43;18.60;99.90
20833;DHT22;56075;51.264;7.150;2023-07-16T06:49:14;18.70;99.90
20833;DHT22;56075;51.264;7.150;2023-07-16T06:51:45;18.60;99.90
20833;DHT22;56075;51.264;7.150;2023-07-16T06:54:17;19.20;99.90
20833;DHT22;56075;51.264;7.150;2023-07-16T06:56:49;19.30;99.90
20833;DHT22;56075;51.264;7.150;2023-07-16T06:59:20;18.80;99.90
20833;DHT22;56075;51.264;7.150;2023-07-16T07:01:52;18.80;99.90
20833;DHT22;56075;51.264;7.150;2023-07-16T07:04:23;18.70;99.90
20833;DHT22;56075;51.264;7.150;2023-07-16T07:06:54;19.20;99.90
20833;DHT22;56075;51.264;7.150;2023-07-16T07:09:25;18.80;99.90
20833;DHT22;56075;51.264;7.150;2023-07-16T07:11:56;18.90;99.90
20833;DHT22;56075;51.264;7.150;2023-07-16T07:14:27;18.80;99.90
20833;DHT22;56075;51.264;7.150;2023-07-16T07:16:58;18.90;99.90
20833;DHT22;56075;51.264;7.150;2023-07-16T07:19:29;18.90;99.90
20833;DHT22;56075;51.264;7.150;2023-07-16T07:22:01;19.00;99.90
20833;DHT22;56075;51.264;7.150;2023-07-16T07:24:32;19.00;99.90
20833;DHT22;56075;51.264;7.150;2023-07-16T07:27:03;19.10;99.90
20833;DHT22;56075;51.264;7.150;2023-07-16T07:29:34;19.20;99.90
20833;DHT22;56075;51.264;7.150;2023-07-16T07:32:06;19.70;99.90
20833;DHT22;56075;51.264;7.150;2023-07-16T07:34:38;19.10;99.90
20833;DHT22;56075;51.264;7.150;2023-07-16T07:37:10;20.00;99.90
20833;DHT22;56075;51.264;7.150;2023-07-16T07:39:41;19.20;99.90
20833;DHT22;56075;51.264;7.150;2023-07-16T07:42:12;19.10;99.90
20833;DHT22;56075;51.264;7.150;2023-07-16T07:44:43;19.20;99.90
20833;DHT22;56075;51.264;7.150;2023-07-16T07:47:14;19.20;99.90
20833;DHT22;56075;51.264;7.150;2023-07-16T07:49:45;19.60;99.90
20833;DHT22;56075;51.264;7.150;2023-07-16T07:52:16;19.10;99.90
20833;DHT22;56075;51.264;7.150;2023-07-16T07:54:47;19.30;99.90
20833;DHT22;56075;51.264;7.150;2023-07-16T07:57:22;19.40;99.90
20833;DHT22;56075;51.264;7.150;2023-07-16T07:59:54;19.30;99.90
20833;DHT22;56075;51.264;7.150;2023-07-16T08:02:28;19.50;99.90
20833;DHT22;56075;51.264;7.150;2023-07-16T08:04:59;19.40;99.90
20833;DHT22;56075;51.264;7.150;2023-07-16T08:07:30;19.50;99.90
20833;DHT22;56075;51.264;7.150;2023-07-16T08:10:02;19.50;99.90
20833;DHT22;56075;51.264;7.150;2023-07-16T08:12:33;19.50;99.90
20833;DHT22;56075;51.264;7.150;2023-07-16T08:15:05;19.50;99.90
20833;DHT22;56075;51.264;7.150;2023-07-16T08:17:44;19.60;99.90
20833;DHT22;56075;51.264;7.150;2023-07-16T08:20:17;19.50;99.90
20833;DHT22;56075;51.264;7.150;2023-07-16T08:22:49;19.50;99.90
20833;DHT22;56075;51.264;7.150;2023-07-16T08:25:20;19.70;99.90
20833;DHT22;56075;51.264;7.150;2023-07-16T08:27:51;19.50;99.90
20833;DHT22;56075;51.264;7.150;2023-07-16T08:30:23;19.60;99.90
20833;DHT22;56075;51.264;7.150;2023-07-16T08:32:54;19.80;99.60
20833;DHT22;56075;51.264;7.150;2023-07-16T08:35:25;19.80;99.20
20833;DHT22;56075;51.264;7.150;2023-07-16T08:37:58;19.80;99.00
20833;DHT22;56075;51.264;7.150;2023-07-16T08:40:33;19.60;98.80
20833;DHT22;56075;51.264;7.150;2023-07-16T08:43:08;19.80;98.80
20833;DHT22;56075;51.264;7.150;2023-07-16T08:45:42;19.90;98.60
20833;DHT22;56075;51.264;7.150;2023-07-16T08:48:18;19.90;98.30
20833;DHT22;56075;51.264;7.150;2023-07-16T08:50:50;20.40;98.40
20833;DHT22;56075;51.264;7.150;2023-07-16T08:53:21;20.20;98.20
20833;DHT22;56075;51.264;7.150;2023-07-16T08:55:52;20.20;98.00
20833;DHT22;56075;51.264;7.150;2023-07-16T08:58:24;20.20;97.60
20833;DHT22;56075;51.264;7.150;2023-07-16T09:00:56;20.30;97.40
20833;DHT22;56075;51.264;7.150;2023-07-16T09:03:27;20.40;97.40
20833;DHT22;56075;51.264;7.150;2023-07-16T09:05:59;20.30;97.10
20833;DHT22;56075;51.264;7.150;2023-07-16T09:08:32;18.90;96.60
20833;DHT22;56075;51.264;7.150;2023-07-16T09:11:04;20.70;97.00
20833;DHT22;56075;51.264;7.150;2023-07-16T09:13:35;20.40;96.80
20833;DHT22;56075;51.264;7.150;2023-07-16T09:16:09;20.50;96.50
20833;DHT22;56075;51.264;7.150;2023-07-16T09:18:40;20.50;96.70
20833;DHT22;56075;51.264;7.150;2023-07-16T09:21:13;20.60;96.60
20833;DHT22;56075;51.264;7.150;2023-07-16T09:23:44;20.70;96.40
20833;DHT22;56075;51.264;7.150;2023-07-16T09:26:15;20.90;96.10
20833;DHT22;56075;51.264;7.150;2023-07-16T09:28:48;21.10;95.70
20833;DHT22;56075;51.264;7.150;2023-07-16T09:31:20;21.10;95.60
20833;DHT22;56075;51.264;7.150;2023-07-16T09:33:51;21.30;95.20
20833;DHT22;56075;51.264;7.150;2023-07-16T09:36:25;21.30;95.00
20833;DHT22;56075;51.264;7.150;2023-07-16T09:38:57;21.10;94.50
20833;DHT22;56075;51.264;7.150;2023-07-16T09:41:30;21.00;94.40
20833;DHT22;56075;51.264;7.150;2023-07-16T09:44:01;21.00;94.20
20833;DHT22;56075;51.264;7.150;2023-07-16T09:46:33;21.00;94.10
20833;DHT22;56075;51.264;7.150;2023-07-16T09:49:04;21.10;94.00
20833;DHT22;56075;51.264;7.150;2023-07-16T09:51:37;21.20;94.10
20833;DHT22;56075;51.264;7.150;2023-07-16T09:54:08;21.20;93.90
20833;DHT22;56075;51.264;7.150;2023-07-16T09:56:49;21.40;93.90
20833;DHT22;56075;51.264;7.150;2023-07-16T09:59:24;21.50;93.80
20833;DHT22;56075;51.264;7.150;2023-07-16T10:01:59;21.50;93.50
20833;DHT22;56075;51.264;7.150;2023-07-16T10:04:38;21.70;93.30
20833;DHT22;56075;51.264;7.150;2023-07-16T10:07:23;21.70;93.20
20833;DHT22;56075;51.264;7.150;2023-07-16T10:09:56;21.50;92.50
20833;DHT22;56075;51.264;7.150;2023-07-16T10:12:28;22.00;92.80
20833;DHT22;56075;51.264;7.150;2023-07-16T10:14:59;22.40;92.70
20833;DHT22;56075;51.264;7.150;2023-07-16T10:17:33;22.20;92.80
20833;DHT22;56075;51.264;7.150;2023-07-16T10:22:47;22.10;92.00
20833;DHT22;56075;51.264;7.150;2023-07-16T10:27:52;21.90;92.10
20833;DHT22;56075;51.264;7.150;2023-07-16T10:30:23;21.90;92.20
20833;DHT22;56075;51.264;7.150;2023-07-16T10:32:55;21.90;92.20
20833;DHT22;56075;51.264;7.150;2023-07-16T10:35:26;19.20;91.30
20833;DHT22;56075;51.264;7.150;2023-07-16T10:37:57;21.70;92.00
20833;DHT22;56075;51.264;7.150;2023-07-16T10:40:29;22.00;92.20
20833;DHT22;56075;51.264;7.150;2023-07-16T10:43:00;22.20;92.00
20833;DHT22;56075;51.264;7.150;2023-07-16T10:45:33;22.30;91.80
20833;DHT22;56075;51.264;7.150;2023-07-16T10:48:04;22.40;91.60
20833;DHT22;56075;51.264;7.150;2023-07-16T10:50:36;22.40;91.50
20833;DHT22;56075;51.264;7.150;2023-07-16T10:53:08;22.70;91.60
20833;DHT22;56075;51.264;7.150;2023-07-16T10:55:41;22.50;91.10
20833;DHT22;56075;51.264;7.150;2023-07-16T10:58:12;22.50;90.90
20833;DHT22;56075;51.264;7.150;2023-07-16T11:00:44;22.60;90.80
20833;DHT22;56075;51.264;7.150;2023-07-16T11:03:16;22.80;90.70
20833;DHT22;56075;51.264;7.150;2023-07-16T11:05:48;22.90;90.50
20833;DHT22;56075;51.264;7.150;2023-07-16T11:08:26;22.80;90.20
20833;DHT22;56075;51.264;7.150;2023-07-16T11:10:58;21.90;89.60
20833;DHT22;56075;51.264;7.150;2023-07-16T11:13:33;23.00;90.30
20833;DHT22;56075;51.264;7.150;2023-07-16T11:16:10;23.00;90.10
20833;DHT22;56075;51.264;7.150;2023-07-16T11:18:42;23.10;89.60
20833;DHT22;56075;51.264;7.150;2023-07-16T11:21:13;23.20;89.80
20833;DHT22;56075;51.264;7.150;2023-07-16T11:23:48;23.20;89.60
20833;DHT22;56075;51.264;7.150;2023-07-16T11:26:20;23.30;88.80
20833;DHT22;56075;51.264;7.150;2023-07-16T11:28:51;23.30;89.00
20833;DHT22;56075;51.264;7.150;2023-07-16T11:31:23;23.20;89.10
20833;DHT22;56075;51.264;7.150;2023-07-16T11:33:59;23.30;88.30
20833;DHT22;56075;51.264;7.150;2023-07-16T11:36:32;23.30;88.20
20833;DHT22;56075;51.264;7.150;2023-07-16T11:39:04;23.30;87.50
20833;DHT22;56075;51.264;7.150;2023-07-16T11:41:36;23.30;87.70
20833;DHT22;56075;51.264;7.150;2023-07-16T11:44:11;23.30;87.90
20833;DHT22;56075;51.264;7.150;2023-07-16T11:46:46;23.40;87.50
20833;DHT22;56075;51.264;7.150;2023-07-16T11:49:17;23.30;87.30
20833;DHT22;56075;51.264;7.150;2023-07-16T11:51:49;23.50;87.40
20833;DHT22;56075;51.264;7.150;2023-07-16T11:54:20;23.90;87.30
20833;DHT22;56075;51.264;7.150;2023-07-16T11:56:52;24.00;86.00
20833;DHT22;56075;51.264;7.150;2023-07-16T11:59:23;24.00;85.80
20833;DHT22;56075;51.264;7.150;2023-07-16T12:01:55;24.10;85.40
20833;DHT22;56075;51.264;7.150;2023-07-16T12:04:26;24.10;84.70
20833;DHT22;56075;51.264;7.150;2023-07-16T12:06:58;24.00;84.60
20833;DHT22;56075;51.264;7.150;2023-07-16T12:09:29;24.50;84.20
20833;DHT22;56075;51.264;7.150;2023-07-16T12:12:00;24.90;83.50
20833;DHT22;56075;51.264;7.150;2023-07-16T12:14:32;24.90;83.30
20833;DHT22;56075;51.264;7.150;2023-07-16T12:17:04;24.70;82.00
20833;DHT22;56075;51.264;7.150;2023-07-16T12:19:35;24.60;82.00
20833;DHT22;56075;51.264;7.150;2023-07-16T12:22:06;24.70;83.10
20833;DHT22;56075;51.264;7.150;2023-07-16T12:24:38;24.40;82.40
20833;DHT22;56075;51.264;7.150;2023-07-16T12:27:09;24.60;82.00
20833;DHT22;56075;51.264;7.150;2023-07-16T12:29:41;24.70;81.40
20833;DHT22;56075;51.264;7.150;2023-07-16T12:32:13;24.70;82.50
20833;DHT22;56075;51.264;7.150;2023-07-16T12:34:44;24.90;81.80
20833;DHT22;56075;51.264;7.150;2023-07-16T12:37:16;24.80;81.30
20833;DHT22;56075;51.264;7.150;2023-07-16T12:39:47;25.50;80.80
20833;DHT22;56075;51.264;7.150;2023-07-16T12:42:19;25.90;79.80
20833;DHT22;56075;51.264;7.150;2023-07-16T12:44:50;25.90;78.90
20833;DHT22;56075;51.264;7.150;2023-07-16T12:47:22;25.60;79.40
20833;DHT22;56075;51.264;7.150;2023-07-16T12:49:53;25.50;79.70
20833;DHT22;56075;51.264;7.150;2023-07-16T12:52:24;25.50;79.80
20833;DHT22;56075;51.264;7.150;2023-07-16T12:54:55;25.60;79.80
20833;DHT22;56075;51.264;7.150;2023-07-16T12:57:27;25.40;79.30
20833;DHT22;56075;51.264;7.150;2023-07-16T12:59:58;25.20;79.40
20833;DHT22;56075;51.264;7.150;2023-07-16T13:02:29;25.10;80.00
20833;DHT22;56075;51.264;7.150;2023-07-16T13:05:01;25.10;79.70
20833;DHT22;56075;51.264;7.150;2023-07-16T13:07:32;25.40;78.90
20833;DHT22;56075;51.264;7.150;2023-07-16T13:10:04;25.20;79.10
20833;DHT22;56075;51.264;7.150;2023-07-16T13:12:36;25.00;79.50
20833;DHT22;56075;51.264;7.150;2023-07-16T13:15:08;25.30;79.00
20833;DHT22;56075;51.264;7.150;2023-07-16T13:17:39;26.10;78.20
20833;DHT22;56075;51.264;7.150;2023-07-16T13:20:11;26.70;77.30
20833;DHT22;56075;51.264;7.150;2023-07-16T13:22:42;26.40;76.60
20833;DHT22;56075;51.264;7.150;2023-07-16T13:25:13;25.90;77.00
20833;DHT22;56075;51.264;7.150;2023-07-16T13:27:47;25.60;77.50
20833;DHT22;56075;51.264;7.150;2023-07-16T13:30:19;25.50;76.70
20833;DHT22;56075;51.264;7.150;2023-07-16T13:32:51;25.90;76.40
20833;DHT22;56075;51.264;7.150;2023-07-16T13:35:27;26.10;75.50
20833;DHT22;56075;51.264;7.150;2023-07-16T13:37:58;26.10;76.20
20833;DHT22;56075;51.264;7.150;2023-07-16T13:40:30;26.00;76.20
20833;DHT22;56075;51.264;7.150;2023-07-16T13:43:01;26.30;75.30
20833;DHT22;56075;51.264;7.150;2023-07-16T13:45:33;26.50;74.70
20833;DHT22;56075;51.264;7.150;2023-07-16T13:48:05;26.20;73.50
20833;DHT22;56075;51.264;7.150;2023-07-16T13:50:36;26.50;73.10
20833;DHT22;56075;51.264;7.150;2023-07-16T13:53:08;26.40;73.50
20833;DHT22;56075;51.264;7.150;2023-07-16T13:55:39;26.20;72.80
20833;DHT22;56075;51.264;7.150;2023-07-16T13:58:11;26.00;72.30
20833;DHT22;56075;51.264;7.150;2023-07-16T14:00:42;26.00;73.30
20833;DHT22;56075;51.264;7.150;2023-07-16T14:03:13;26.10;73.10
20833;DHT22;56075;51.264;7.150;2023-07-16T14:05:44;27.60;73.50
20833;DHT22;56075;51.264;7.150;2023-07-16T14:08:16;26.30;72.40
20833;DHT22;56075;51.264;7.150;2023-07-16T14:10:50;26.20;72.40
20833;DHT22;56075;51.264;7.150;2023-07-16T14:13:21;25.80;73.10
20833;DHT22;56075;51.264;7.150;2023-07-16T14:15:52;26.00;73.70
20833;DHT22;56075;51.264;7.150;2023-07-16T14:18:23;26.70;72.60
20833;DHT22;56075;51.264;7.150;2023-07-16T14:20:55;27.00;70.60
20833;DHT22;56075;51.264;7.150;2023-07-16T14:23:27;27.10;70.10
20833;DHT22;56075;51.264;7.150;2023-07-16T14:25:58;27.10;70.80
20833;DHT22;56075;51.264;7.150;2023-07-16T14:28:29;27.00;71.00
20833;DHT22;56075;51.264;7.150;2023-07-16T14:31:01;27.00;71.00
20833;DHT22;56075;51.264;7.150;2023-07-16T14:33:32;26.90;71.20
20833;DHT22;56075;51.264;7.150;2023-07-16T14:36:03;27.00;71.30
20833;DHT22;56075;51.264;7.150;2023-07-16T14:38:34;27.00;71.00
20833;DHT22;56075;51.264;7.150;2023-07-16T14:41:06;26.80;71.60
20833;DHT22;56075;51.264;7.150;2023-07-16T14:43:38;26.60;72.40
20833;DHT22;56075;51.264;7.150;2023-07-16T14:46:09;26.50;72.70
20833;DHT22;56075;51.264;7.150;2023-07-16T14:48:46;26.60;73.00
20833;DHT22;56075;51.264;7.150;2023-07-16T14:51:18;27.00;71.70
20833;DHT22;56075;51.264;7.150;2023-07-16T14:53:50;26.90;71.70
20833;DHT22;56075;51.264;7.150;2023-07-16T14:56:23;26.60;72.10
20833;DHT22;56075;51.264;7.150;2023-07-16T14:58:54;26.50;72.40
20833;DHT22;56075;51.264;7.150;2023-07-16T15:01:25;26.50;72.80
20833;DHT22;56075;51.264;7.150;2023-07-16T15:03:56;26.30;73.30
20833;DHT22;56075;51.264;7.150;2023-07-16T15:06:28;26.10;73.50
20833;DHT22;56075;51.264;7.150;2023-07-16T15:08:59;25.90;74.40
20833;DHT22;56075;51.264;7.150;2023-07-16T15:11:30;25.80;74.70
20833;DHT22;56075;51.264;7.150;2023-07-16T15:14:05;25.70;74.80
20833;DHT22;56075;51.264;7.150;2023-07-16T15:16:36;25.90;74.30
20833;DHT22;56075;51.264;7.150;2023-07-16T15:19:07;25.80;74.20
20833;DHT22;56075;51.264;7.150;2023-07-16T15:21:42;25.80;73.90
20833;DHT22;56075;51.264;7.150;2023-07-16T15:24:13;25.80;74.50
20833;DHT22;56075;51.264;7.150;2023-07-16T15:26:44;25.70;74.60
20833;DHT22;56075;51.264;7.150;2023-07-16T15:29:15;26.00;74.80
20833;DHT22;56075;51.264;7.150;2023-07-16T15:31:47;26.10;75.50
20833;DHT22;56075;51.264;7.150;2023-07-16T15:34:18;26.00;74.30
20833;DHT22;56075;51.264;7.150;2023-07-16T15:36:49;25.80;74.40
20833;DHT22;56075;51.264;7.150;2023-07-16T15:39:21;26.00;74.70
20833;DHT22;56075;51.264;7.150;2023-07-16T15:41:52;26.00;74.60
20833;DHT22;56075;51.264;7.150;2023-07-16T15:44:23;26.20;74.60
20833;DHT22;56075;51.264;7.150;2023-07-16T15:46:54;26.20;74.30
20833;DHT22;56075;51.264;7.150;2023-07-16T15:49:25;26.50;73.50
20833;DHT22;56075;51.264;7.150;2023-07-16T15:51:57;26.50;72.80
20833;DHT22;56075;51.264;7.150;2023-07-16T15:54:28;26.20;72.90
20833;DHT22;56075;51.264;7.150;2023-07-16T15:56:59;26.20;73.20
20833;DHT22;56075;51.264;7.150;2023-07-16T15:59:30;26.30;73.40
20833;DHT22;56075;51.264;7.150;2023-07-16T16:02:02;26.50;73.20
20833;DHT22;56075;51.264;7.150;2023-07-16T16:04:33;27.00;72.00
20833;DHT22;56075;51.264;7.150;2023-07-16T16:07:04;27.50;70.80
20833;DHT22;56075;51.264;7.150;2023-07-16T16:09:36;27.90;70.00